sensor_id;sensor_type;location;lat;lon;timestamp;P1;durP1;ratioP1;P2;durP2;ratioP2
13421;SDS011;6782;55.904;13.396;2023-04-06T00:00:36;2.57;;;2.33;;
13421;SDS011;6782;55.904;13.396;2023-04-06T00:03:06;2.87;;;2.50;;
13421;SDS011;6782;55.904;13.396;2023-04-06T00:05:33;4.20;;;2.50;;
13421;SDS011;6782;55.904;13.396;2023-04-06T00:08:00;2.80;;;2.50;;
13421;SDS011;6782;55.904;13.396;2023-04-06T00:10:27;3.20;;;2.53;;
13421;SDS011;6782;55.904;13.396;2023-04-06T00:12:56;3.30;;;2.67;;
13421;SDS011;6782;55.904;13.396;2023-04-06T00:15:23;2.80;;;2.50;;
13421;SDS011;6782;55.904;13.396;2023-04-06T00:17:50;2.67;;;2.43;;
13421;SDS011;6782;55.904;13.396;2023-04-06T00:20:17;3.83;;;2.73;;
13421;SDS011;6782;55.904;13.396;2023-04-06T00:22:44;2.57;;;2.37;;
13421;SDS011;6782;55.904;13.396;2023-04-06T00:25:11;4.30;;;2.17;;
13421;SDS011;6782;55.904;13.396;2023-04-06T00:27:40;2.20;;;2.00;;
13421;SDS011;6782;55.904;13.396;2023-04-06T00:30:10;4.47;;;2.77;;
13421;SDS011;6782;55.904;13.396;2023-04-06T00:32:38;4.47;;;2.97;;
13421;SDS011;6782;55.904;13.396;2023-04-06T00:35:05;3.50;;;3.20;;
13421;SDS011;6782;55.904;13.396;2023-04-06T00:37:32;3.40;;;3.10;;
13421;SDS011;6782;55.904;13.396;2023-04-06T00:40:00;4.03;;;3.07;;
13421;SDS011;6782;55.904;13.396;2023-04-06T00:42:27;4.33;;;3.10;;
13421;SDS011;6782;55.904;13.396;2023-04-06T00:44:55;3.50;;;3.20;;
13421;SDS011;6782;55.904;13.396;2023-04-06T00:47:24;3.73;;;2.90;;
13421;SDS011;6782;55.904;13.396;2023-04-06T00:49:52;3.80;;;3.40;;
13421;SDS011;6782;55.904;13.396;2023-04-06T00:52:19;4.03;;;3.63;;
13421;SDS011;6782;55.904;13.396;2023-04-06T00:54:47;4.17;;;3.87;;
13421;SDS011;6782;55.904;13.396;2023-04-06T00:57:16;3.83;;;3.53;;
13421;SDS011;6782;55.904;13.396;2023-04-06T00:59:45;3.77;;;3.47;;
13421;SDS011;6782;55.904;13.396;2023-04-06T01:02:12;4.33;;;3.93;;
13421;SDS011;6782;55.904;13.396;2023-04-06T01:04:41;4.50;;;4.10;;
13421;SDS011;6782;55.904;13.396;2023-04-06T01:07:08;5.27;;;4.27;;
13421;SDS011;6782;55.904;13.396;2023-04-06T01:09:38;4.77;;;4.37;;
13421;SDS011;6782;55.904;13.396;2023-04-06T01:12:07;5.37;;;4.87;;
13421;SDS011;6782;55.904;13.396;2023-04-06T01:14:34;6.70;;;5.10;;
13421;SDS011;6782;55.904;13.396;2023-04-06T01:17:01;5.23;;;4.83;;
13421;SDS011;6782;55.904;13.396;2023-04-06T01:19:28;5.50;;;5.00;;
13421;SDS011;6782;55.904;13.396;2023-04-06T01:21:57;5.60;;;5.10;;
13421;SDS011;6782;55.904;13.396;2023-04-06T01:24:34;5.90;;;5.40;;
13421;SDS011;6782;55.904;13.396;2023-04-06T01:27:01;6.87;;;5.47;;
13421;SDS011;6782;55.904;13.396;2023-04-06T01:29:28;5.73;;;5.03;;
13421;SDS011;6782;55.904;13.396;2023-04-06T01:31:55;7.60;;;5.93;;
13421;SDS011;6782;55.904;13.396;2023-04-06T01:34:22;6.87;;;5.73;;
13421;SDS011;6782;55.904;13.396;2023-04-06T01:36:53;6.10;;;5.50;;
13421;SDS011;6782;55.904;13.396;2023-04-06T01:39:20;6.67;;;5.93;;
13421;SDS011;6782;55.904;13.396;2023-04-06T01:41:49;5.93;;;5.43;;
13421;SDS011;6782;55.904;13.396;2023-04-06T01:44:16;6.47;;;5.87;;
13421;SDS011;6782;55.904;13.396;2023-04-06T01:46:43;6.90;;;6.20;;
13421;SDS011;6782;55.904;13.396;2023-04-06T01:49:11;6.63;;;6.03;;
13421;SDS011;6782;55.904;13.396;2023-04-06T01:51:42;6.90;;;6.27;;
13421;SDS011;6782;55.904;13.396;2023-04-06T01:54:09;6.63;;;5.93;;
13421;SDS011;6782;55.904;13.396;2023-04-06T01:56:36;8.97;;;6.97;;
13421;SDS011;6782;55.904;13.396;2023-04-06T01:59:05;7.50;;;6.80;;
13421;SDS011;6782;55.904;13.396;2023-04-06T02:01:32;7.83;;;7.13;;
13421;SDS011;6782;55.904;13.396;2023-04-06T02:03:59;8.70;;;7.47;;
13421;SDS011;6782;55.904;13.396;2023-04-06T02:06:26;8.27;;;7.47;;
13421;SDS011;6782;55.904;13.396;2023-04-06T02:08:53;9.97;;;8.97;;
13421;SDS011;6782;55.904;13.396;2023-04-06T02:11:25;10.00;;;9.00;;
13421;SDS011;6782;55.904;13.396;2023-04-06T02:13:53;11.40;;;10.03;;
13421;SDS011;6782;55.904;13.396;2023-04-06T02:16:21;12.10;;;10.87;;
13421;SDS011;6782;55.904;13.396;2023-04-06T02:18:49;13.90;;;12.03;;
13421;SDS011;6782;55.904;13.396;2023-04-06T02:21:17;12.47;;;10.73;;
13421;SDS011;6782;55.904;13.396;2023-04-06T02:23:45;14.47;;;12.33;;
13421;SDS011;6782;55.904;13.396;2023-04-06T02:26:12;12.93;;;11.07;;
13421;SDS011;6782;55.904;13.396;2023-04-06T02:28:40;16.13;;;12.57;;
13421;SDS011;6782;55.904;13.396;2023-04-06T02:31:07;14.63;;;11.37;;
13421;SDS011;6782;55.904;13.396;2023-04-06T02:33:37;13.03;;;11.60;;
13421;SDS011;6782;55.904;13.396;2023-04-06T02:36:04;13.17;;;11.00;;
13421;SDS011;6782;55.904;13.396;2023-04-06T02:38:31;11.50;;;10.00;;
13421;SDS011;6782;55.904;13.396;2023-04-06T02:40:59;11.73;;;9.20;;
13421;SDS011;6782;55.904;13.396;2023-04-06T02:43:26;9.23;;;8.40;;
13421;SDS011;6782;55.904;13.396;2023-04-06T02:45:53;9.37;;;8.30;;
13421;SDS011;6782;55.904;13.396;2023-04-06T02:48:20;10.83;;;8.40;;
13421;SDS011;6782;55.904;13.396;2023-04-06T02:50:49;8.80;;;7.27;;
13421;SDS011;6782;55.904;13.396;2023-04-06T02:53:15;8.30;;;7.47;;
13421;SDS011;6782;55.904;13.396;2023-04-06T02:55:47;8.90;;;7.77;;
13421;SDS011;6782;55.904;13.396;2023-04-06T02:58:15;8.57;;;7.23;;
13421;SDS011;6782;55.904;13.396;2023-04-06T03:00:42;7.30;;;6.57;;
13421;SDS011;6782;55.904;13.396;2023-04-06T03:03:09;7.83;;;7.03;;
13421;SDS011;6782;55.904;13.396;2023-04-06T03:05:35;9.27;;;7.20;;
13421;SDS011;6782;55.904;13.396;2023-04-06T03:08:04;7.87;;;7.07;;
13421;SDS011;6782;55.904;13.396;2023-04-06T03:10:31;6.97;;;6.30;;
13421;SDS011;6782;55.904;13.396;2023-04-06T03:12:58;8.90;;;6.97;;
13421;SDS011;6782;55.904;13.396;2023-04-06T03:15:25;7.53;;;6.70;;
13421;SDS011;6782;55.904;13.396;2023-04-06T03:17:52;6.93;;;6.20;;
13421;SDS011;6782;55.904;13.396;2023-04-06T03:20:20;6.67;;;6.07;;
13421;SDS011;6782;55.904;13.396;2023-04-06T03:22:48;6.27;;;5.67;;
13421;SDS011;6782;55.904;13.396;2023-04-06T03:25:17;7.93;;;5.97;;
13421;SDS011;6782;55.904;13.396;2023-04-06T03:27:44;8.60;;;6.23;;
13421;SDS011;6782;55.904;13.396;2023-04-06T03:30:12;6.73;;;5.80;;
13421;SDS011;6782;55.904;13.396;2023-04-06T03:32:38;6.13;;;5.47;;
13421;SDS011;6782;55.904;13.396;2023-04-06T03:35:05;6.10;;;5.50;;
13421;SDS011;6782;55.904;13.396;2023-04-06T03:37:33;6.63;;;5.43;;
13421;SDS011;6782;55.904;13.396;2023-04-06T03:40:00;7.07;;;5.80;;
13421;SDS011;6782;55.904;13.396;2023-04-06T03:42:28;6.13;;;5.50;;
13421;SDS011;6782;55.904;13.396;2023-04-06T03:44:56;5.90;;;5.10;;
13421;SDS011;6782;55.904;13.396;2023-04-06T03:47:23;5.80;;;5.20;;
13421;SDS011;6782;55.904;13.396;2023-04-06T03:49:51;6.77;;;5.40;;
13421;SDS011;6782;55.904;13.396;2023-04-06T03:52:18;5.87;;;5.23;;
13421;SDS011;6782;55.904;13.396;2023-04-06T03:54:45;5.97;;;5.10;;
13421;SDS011;6782;55.904;13.396;2023-04-06T03:57:12;6.53;;;5.07;;
13421;SDS011;6782;55.904;13.396;2023-04-06T03:59:40;7.17;;;4.53;;
13421;SDS011;6782;55.904;13.396;2023-04-06T04:02:07;7.77;;;4.73;;
13421;SDS011;6782;55.904;13.396;2023-04-06T04:04:35;4.97;;;4.40;;
13421;SDS011;6782;55.904;13.396;2023-04-06T04:07:02;6.20;;;5.20;;
13421;SDS011;6782;55.904;13.396;2023-04-06T04:09:29;4.50;;;4.10;;
13421;SDS011;6782;55.904;13.396;2023-04-06T04:11:56;6.37;;;4.40;;
13421;SDS011;6782;55.904;13.396;2023-04-06T04:14:22;5.47;;;4.40;;
13421;SDS011;6782;55.904;13.396;2023-04-06T04:16:51;5.23;;;4.20;;
13421;SDS011;6782;55.904;13.396;2023-04-06T04:19:17;7.63;;;4.20;;
13421;SDS011;6782;55.904;13.396;2023-04-06T04:21:44;5.20;;;4.57;;
13421;SDS011;6782;55.904;13.396;2023-04-06T04:24:12;5.27;;;4.33;;
13421;SDS011;6782;55.904;13.396;2023-04-06T04:26:39;4.97;;;4.37;;
13421;SDS011;6782;55.904;13.396;2023-04-06T04:29:07;5.13;;;4.37;;
13421;SDS011;6782;55.904;13.396;2023-04-06T04:31:35;5.93;;;4.20;;
13421;SDS011;6782;55.904;13.396;2023-04-06T04:34:03;4.93;;;4.20;;
13421;SDS011;6782;55.904;13.396;2023-04-06T04:36:32;4.57;;;3.93;;
13421;SDS011;6782;55.904;13.396;2023-04-06T04:38:59;8.60;;;4.83;;
13421;SDS011;6782;55.904;13.396;2023-04-06T04:41:27;4.47;;;4.07;;
13421;SDS011;6782;55.904;13.396;2023-04-06T04:43:54;7.30;;;4.30;;
13421;SDS011;6782;55.904;13.396;2023-04-06T04:46:21;5.77;;;4.10;;
13421;SDS011;6782;55.904;13.396;2023-04-06T04:48:47;4.80;;;4.30;;
13421;SDS011;6782;55.904;13.396;2023-04-06T04:51:16;5.73;;;4.67;;
13421;SDS011;6782;55.904;13.396;2023-04-06T04:53:45;6.87;;;5.27;;
13421;SDS011;6782;55.904;13.396;2023-04-06T04:56:11;7.67;;;5.43;;
13421;SDS011;6782;55.904;13.396;2023-04-06T04:58:38;6.20;;;5.17;;
13421;SDS011;6782;55.904;13.396;2023-04-06T05:01:04;6.83;;;5.20;;
13421;SDS011;6782;55.904;13.396;2023-04-06T05:03:32;5.80;;;5.07;;
13421;SDS011;6782;55.904;13.396;2023-04-06T05:05:59;7.60;;;5.40;;
13421;SDS011;6782;55.904;13.396;2023-04-06T05:08:28;5.37;;;4.67;;
13421;SDS011;6782;55.904;13.396;2023-04-06T05:10:57;6.77;;;4.97;;
13421;SDS011;6782;55.904;13.396;2023-04-06T05:13:24;6.37;;;4.90;;
13421;SDS011;6782;55.904;13.396;2023-04-06T05:15:52;5.97;;;4.67;;
13421;SDS011;6782;55.904;13.396;2023-04-06T05:18:19;7.57;;;4.90;;
13421;SDS011;6782;55.904;13.396;2023-04-06T05:20:47;6.60;;;5.90;;
13421;SDS011;6782;55.904;13.396;2023-04-06T05:23:14;6.63;;;5.90;;
13421;SDS011;6782;55.904;13.396;2023-04-06T05:25:43;7.77;;;5.43;;
13421;SDS011;6782;55.904;13.396;2023-04-06T05:28:10;5.70;;;4.50;;
13421;SDS011;6782;55.904;13.396;2023-04-06T05:30:39;6.03;;;4.90;;
13421;SDS011;6782;55.904;13.396;2023-04-06T05:33:10;5.83;;;4.70;;
13421;SDS011;6782;55.904;13.396;2023-04-06T05:35:37;5.20;;;4.13;;
13421;SDS011;6782;55.904;13.396;2023-04-06T05:38:05;4.70;;;4.00;;
13421;SDS011;6782;55.904;13.396;2023-04-06T05:40:32;4.90;;;4.40;;
13421;SDS011;6782;55.904;13.396;2023-04-06T05:43:01;4.90;;;3.80;;
13421;SDS011;6782;55.904;13.396;2023-04-06T05:45:28;4.27;;;3.47;;
13421;SDS011;6782;55.904;13.396;2023-04-06T05:47:54;3.73;;;3.30;;
13421;SDS011;6782;55.904;13.396;2023-04-06T05:50:21;5.03;;;3.60;;
13421;SDS011;6782;55.904;13.396;2023-04-06T05:52:49;5.57;;;3.17;;
13421;SDS011;6782;55.904;13.396;2023-04-06T05:55:16;3.77;;;3.10;;
13421;SDS011;6782;55.904;13.396;2023-04-06T05:57:43;5.20;;;3.30;;
13421;SDS011;6782;55.904;13.396;2023-04-06T06:00:12;4.00;;;3.10;;
13421;SDS011;6782;55.904;13.396;2023-04-06T06:02:39;3.33;;;2.80;;
13421;SDS011;6782;55.904;13.396;2023-04-06T06:05:08;3.80;;;3.50;;
13421;SDS011;6782;55.904;13.396;2023-04-06T06:07:35;4.30;;;3.90;;
13421;SDS011;6782;55.904;13.396;2023-04-06T06:10:02;6.43;;;4.27;;
13421;SDS011;6782;55.904;13.396;2023-04-06T06:12:29;5.17;;;4.07;;
13421;SDS011;6782;55.904;13.396;2023-04-06T06:14:56;4.57;;;3.80;;
13421;SDS011;6782;55.904;13.396;2023-04-06T06:17:33;5.53;;;3.80;;
13421;SDS011;6782;55.904;13.396;2023-04-06T06:20:00;5.17;;;3.37;;
13421;SDS011;6782;55.904;13.396;2023-04-06T06:22:28;3.90;;;3.47;;
13421;SDS011;6782;55.904;13.396;2023-04-06T06:24:56;5.03;;;4.03;;
13421;SDS011;6782;55.904;13.396;2023-04-06T06:27:24;3.90;;;3.60;;
13421;SDS011;6782;55.904;13.396;2023-04-06T06:29:51;6.67;;;3.73;;
13421;SDS011;6782;55.904;13.396;2023-04-06T06:32:25;3.37;;;3.00;;
13421;SDS011;6782;55.904;13.396;2023-04-06T06:34:56;5.90;;;3.53;;
13421;SDS011;6782;55.904;13.396;2023-04-06T06:37:23;5.90;;;4.50;;
13421;SDS011;6782;55.904;13.396;2023-04-06T06:39:51;7.20;;;5.90;;
13421;SDS011;6782;55.904;13.396;2023-04-06T06:42:17;6.07;;;3.93;;
13421;SDS011;6782;55.904;13.396;2023-04-06T06:44:45;10.47;;;6.40;;
13421;SDS011;6782;55.904;13.396;2023-04-06T06:47:12;8.33;;;5.17;;
13421;SDS011;6782;55.904;13.396;2023-04-06T06:49:39;4.53;;;3.63;;
13421;SDS011;6782;55.904;13.396;2023-04-06T06:52:08;5.07;;;3.63;;
13421;SDS011;6782;55.904;13.396;2023-04-06T06:54:35;5.87;;;3.37;;
13421;SDS011;6782;55.904;13.396;2023-04-06T06:57:02;4.00;;;3.10;;
13421;SDS011;6782;55.904;13.396;2023-04-06T06:59:43;3.47;;;3.17;;
13421;SDS011;6782;55.904;13.396;2023-04-06T07:02:10;5.10;;;3.43;;
13421;SDS011;6782;55.904;13.396;2023-04-06T07:04:37;3.57;;;3.00;;
13421;SDS011;6782;55.904;13.396;2023-04-06T07:07:21;4.80;;;3.30;;
13421;SDS011;6782;55.904;13.396;2023-04-06T07:09:48;4.10;;;3.50;;
13421;SDS011;6782;55.904;13.396;2023-04-06T07:12:15;3.30;;;2.77;;
13421;SDS011;6782;55.904;13.396;2023-04-06T07:14:43;3.70;;;3.23;;
13421;SDS011;6782;55.904;13.396;2023-04-06T07:17:10;3.53;;;3.23;;
13421;SDS011;6782;55.904;13.396;2023-04-06T07:19:37;3.80;;;3.27;;
13421;SDS011;6782;55.904;13.396;2023-04-06T07:22:21;3.87;;;3.17;;
13421;SDS011;6782;55.904;13.396;2023-04-06T07:24:47;3.73;;;3.23;;
13421;SDS011;6782;55.904;13.396;2023-04-06T07:27:14;3.97;;;3.57;;
13421;SDS011;6782;55.904;13.396;2023-04-06T07:29:42;5.07;;;3.10;;
13421;SDS011;6782;55.904;13.396;2023-04-06T07:32:09;6.53;;;3.53;;
13421;SDS011;6782;55.904;13.396;2023-04-06T07:34:36;4.47;;;3.63;;
13421;SDS011;6782;55.904;13.396;2023-04-06T07:37:03;6.33;;;3.70;;
13421;SDS011;6782;55.904;13.396;2023-04-06T07:39:33;6.27;;;3.63;;
13421;SDS011;6782;55.904;13.396;2023-04-06T07:42:00;4.30;;;3.20;;
13421;SDS011;6782;55.904;13.396;2023-04-06T07:44:27;6.43;;;3.93;;
13421;SDS011;6782;55.904;13.396;2023-04-06T07:46:54;3.93;;;3.53;;
13421;SDS011;6782;55.904;13.396;2023-04-06T07:49:22;6.03;;;3.70;;
13421;SDS011;6782;55.904;13.396;2023-04-06T07:51:49;4.47;;;3.20;;
13421;SDS011;6782;55.904;13.396;2023-04-06T07:54:33;4.47;;;3.20;;
13421;SDS011;6782;55.904;13.396;2023-04-06T07:57:03;4.87;;;3.23;;
13421;SDS011;6782;55.904;13.396;2023-04-06T07:59:30;4.33;;;3.40;;
13421;SDS011;6782;55.904;13.396;2023-04-06T08:01:57;5.17;;;2.93;;
13421;SDS011;6782;55.904;13.396;2023-04-06T08:04:24;2.83;;;2.50;;
13421;SDS011;6782;55.904;13.396;2023-04-06T08:06:52;3.77;;;2.80;;
13421;SDS011;6782;55.904;13.396;2023-04-06T08:09:19;4.60;;;2.53;;
13421;SDS011;6782;55.904;13.396;2023-04-06T08:11:49;4.67;;;2.80;;
13421;SDS011;6782;55.904;13.396;2023-04-06T08:14:16;2.87;;;2.57;;
13421;SDS011;6782;55.904;13.396;2023-04-06T08:16:43;6.23;;;2.80;;
13421;SDS011;6782;55.904;13.396;2023-04-06T08:19:11;4.87;;;2.50;;
13421;SDS011;6782;55.904;13.396;2023-04-06T08:21:38;2.83;;;2.60;;
13421;SDS011;6782;55.904;13.396;2023-04-06T08:24:06;3.30;;;2.40;;
13421;SDS011;6782;55.904;13.396;2023-04-06T08:26:33;5.63;;;2.93;;
13421;SDS011;6782;55.904;13.396;2023-04-06T08:29:02;3.90;;;2.87;;
13421;SDS011;6782;55.904;13.396;2023-04-06T08:31:29;3.43;;;2.60;;
13421;SDS011;6782;55.904;13.396;2023-04-06T08:33:57;2.80;;;2.37;;
13421;SDS011;6782;55.904;13.396;2023-04-06T08:36:24;4.07;;;2.63;;
13421;SDS011;6782;55.904;13.396;2023-04-06T08:38:51;2.53;;;2.33;;
13421;SDS011;6782;55.904;13.396;2023-04-06T08:41:19;4.33;;;2.23;;
13421;SDS011;6782;55.904;13.396;2023-04-06T08:43:47;3.03;;;2.47;;
13421;SDS011;6782;55.904;13.396;2023-04-06T08:46:17;2.57;;;2.37;;
13421;SDS011;6782;55.904;13.396;2023-04-06T08:48:44;3.90;;;2.60;;
13421;SDS011;6782;55.904;13.396;2023-04-06T08:51:14;3.53;;;2.27;;
13421;SDS011;6782;55.904;13.396;2023-04-06T08:53:41;3.53;;;2.37;;
13421;SDS011;6782;55.904;13.396;2023-04-06T08:56:09;4.20;;;2.50;;
13421;SDS011;6782;55.904;13.396;2023-04-06T08:58:39;3.17;;;2.10;;
13421;SDS011;6782;55.904;13.396;2023-04-06T09:01:07;3.20;;;2.50;;
13421;SDS011;6782;55.904;13.396;2023-04-06T09:03:38;3.53;;;2.60;;
13421;SDS011;6782;55.904;13.396;2023-04-06T09:06:06;3.33;;;2.10;;
13421;SDS011;6782;55.904;13.396;2023-04-06T09:08:34;3.00;;;2.20;;
13421;SDS011;6782;55.904;13.396;2023-04-06T09:11:07;2.80;;;2.00;;
13421;SDS011;6782;55.904;13.396;2023-04-06T09:13:43;2.03;;;1.83;;
13421;SDS011;6782;55.904;13.396;2023-04-06T09:16:11;2.93;;;2.23;;
13421;SDS011;6782;55.904;13.396;2023-04-06T09:18:39;3.00;;;2.13;;
13421;SDS011;6782;55.904;13.396;2023-04-06T09:21:07;2.67;;;2.20;;
13421;SDS011;6782;55.904;13.396;2023-04-06T09:23:34;2.13;;;1.70;;
13421;SDS011;6782;55.904;13.396;2023-04-06T09:26:05;2.07;;;1.80;;
13421;SDS011;6782;55.904;13.396;2023-04-06T09:28:41;1.60;;;1.40;;
13421;SDS011;6782;55.904;13.396;2023-04-06T09:31:08;1.63;;;1.53;;
13421;SDS011;6782;55.904;13.396;2023-04-06T09:33:37;2.53;;;1.97;;
13421;SDS011;6782;55.904;13.396;2023-04-06T09:36:06;2.20;;;1.70;;
13421;SDS011;6782;55.904;13.396;2023-04-06T09:38:36;2.57;;;2.10;;
13421;SDS011;6782;55.904;13.396;2023-04-06T09:41:03;3.10;;;2.10;;
13421;SDS011;6782;55.904;13.396;2023-04-06T09:43:30;2.60;;;2.00;;
13421;SDS011;6782;55.904;13.396;2023-04-06T09:45:58;2.10;;;1.90;;
13421;SDS011;6782;55.904;13.396;2023-04-06T09:48:25;3.00;;;2.23;;
13421;SDS011;6782;55.904;13.396;2023-04-06T09:50:55;4.23;;;2.63;;
13421;SDS011;6782;55.904;13.396;2023-04-06T09:53:26;3.07;;;2.70;;
13421;SDS011;6782;55.904;13.396;2023-04-06T09:55:57;4.53;;;3.07;;
13421;SDS011;6782;55.904;13.396;2023-04-06T09:58:32;4.63;;;2.70;;
13421;SDS011;6782;55.904;13.396;2023-04-06T10:01:02;3.13;;;2.80;;
13421;SDS011;6782;55.904;13.396;2023-04-06T10:03:31;3.87;;;2.97;;
13421;SDS011;6782;55.904;13.396;2023-04-06T10:06:03;3.43;;;3.13;;
13421;SDS011;6782;55.904;13.396;2023-04-06T10:08:33;3.93;;;3.53;;
13421;SDS011;6782;55.904;13.396;2023-04-06T10:11:03;4.10;;;3.00;;
13421;SDS011;6782;55.904;13.396;2023-04-06T10:13:40;6.33;;;3.47;;
13421;SDS011;6782;55.904;13.396;2023-04-06T10:16:07;3.63;;;3.00;;
13421;SDS011;6782;55.904;13.396;2023-04-06T10:18:35;3.50;;;3.00;;
13421;SDS011;6782;55.904;13.396;2023-04-06T10:21:12;3.73;;;3.43;;
13421;SDS011;6782;55.904;13.396;2023-04-06T10:23:44;2.90;;;2.70;;
13421;SDS011;6782;55.904;13.396;2023-04-06T10:26:12;4.60;;;3.50;;
13421;SDS011;6782;55.904;13.396;2023-04-06T10:28:41;5.20;;;3.23;;
13421;SDS011;6782;55.904;13.396;2023-04-06T10:31:07;4.90;;;3.63;;
13421;SDS011;6782;55.904;13.396;2023-04-06T10:33:35;4.33;;;3.37;;
13421;SDS011;6782;55.904;13.396;2023-04-06T10:36:12;4.00;;;3.20;;
13421;SDS011;6782;55.904;13.396;2023-04-06T10:38:45;4.90;;;2.97;;
13421;SDS011;6782;55.904;13.396;2023-04-06T10:41:16;3.93;;;3.17;;
13421;SDS011;6782;55.904;13.396;2023-04-06T10:43:44;4.50;;;3.63;;
13421;SDS011;6782;55.904;13.396;2023-04-06T10:46:14;4.10;;;3.70;;
13421;SDS011;6782;55.904;13.396;2023-04-06T10:48:50;3.70;;;3.33;;
13421;SDS011;6782;55.904;13.396;2023-04-06T10:51:17;4.20;;;3.80;;
13421;SDS011;6782;55.904;13.396;2023-04-06T10:53:47;5.17;;;4.07;;
13421;SDS011;6782;55.904;13.396;2023-04-06T10:56:16;4.80;;;3.77;;
13421;SDS011;6782;55.904;13.396;2023-04-06T10:58:43;4.20;;;3.50;;
13421;SDS011;6782;55.904;13.396;2023-04-06T11:01:15;5.03;;;3.67;;
13421;SDS011;6782;55.904;13.396;2023-04-06T11:03:43;5.70;;;4.27;;
13421;SDS011;6782;55.904;13.396;2023-04-06T11:06:17;4.20;;;3.73;;
13421;SDS011;6782;55.904;13.396;2023-04-06T11:08:44;4.60;;;4.20;;
13421;SDS011;6782;55.904;13.396;2023-04-06T11:11:14;6.60;;;4.90;;
13421;SDS011;6782;55.904;13.396;2023-04-06T11:13:44;6.33;;;4.33;;
13421;SDS011;6782;55.904;13.396;2023-04-06T11:16:12;5.47;;;4.40;;
13421;SDS011;6782;55.904;13.396;2023-04-06T11:18:50;5.43;;;4.57;;
13421;SDS011;6782;55.904;13.396;2023-04-06T11:21:17;5.30;;;4.80;;
13421;SDS011;6782;55.904;13.396;2023-04-06T11:23:44;4.90;;;3.97;;
13421;SDS011;6782;55.904;13.396;2023-04-06T11:26:13;5.40;;;4.23;;
13421;SDS011;6782;55.904;13.396;2023-04-06T11:28:40;4.27;;;3.87;;
13421;SDS011;6782;55.904;13.396;2023-04-06T11:31:08;6.53;;;4.77;;
13421;SDS011;6782;55.904;13.396;2023-04-06T11:33:35;6.83;;;3.97;;
13421;SDS011;6782;55.904;13.396;2023-04-06T11:36:04;4.73;;;3.87;;
13421;SDS011;6782;55.904;13.396;2023-04-06T11:38:31;3.90;;;3.60;;
13421;SDS011;6782;55.904;13.396;2023-04-06T11:40:57;6.90;;;3.73;;
13421;SDS011;6782;55.904;13.396;2023-04-06T11:43:29;4.53;;;4.13;;
13421;SDS011;6782;55.904;13.396;2023-04-06T11:45:59;4.33;;;3.70;;
13421;SDS011;6782;55.904;13.396;2023-04-06T11:48:26;4.00;;;3.70;;
13421;SDS011;6782;55.904;13.396;2023-04-06T11:50:55;3.80;;;3.50;;
13421;SDS011;6782;55.904;13.396;2023-04-06T11:53:22;5.27;;;3.53;;
13421;SDS011;6782;55.904;13.396;2023-04-06T11:55:50;4.33;;;3.93;;
13421;SDS011;6782;55.904;13.396;2023-04-06T11:58:17;4.67;;;3.90;;
13421;SDS011;6782;55.904;13.396;2023-04-06T12:00:46;4.47;;;3.60;;
13421;SDS011;6782;55.904;13.396;2023-04-06T12:03:13;3.70;;;3.40;;
13421;SDS011;6782;55.904;13.396;2023-04-06T12:05:40;4.10;;;3.70;;
13421;SDS011;6782;55.904;13.396;2023-04-06T12:08:07;5.20;;;4.13;;
13421;SDS011;6782;55.904;13.396;2023-04-06T12:10:34;5.53;;;4.07;;
13421;SDS011;6782;55.904;13.396;2023-04-06T12:13:02;3.90;;;3.60;;
13421;SDS011;6782;55.904;13.396;2023-04-06T12:15:29;3.77;;;3.47;;
13421;SDS011;6782;55.904;13.396;2023-04-06T12:17:57;5.47;;;4.20;;
13421;SDS011;6782;55.904;13.396;2023-04-06T12:20:25;6.17;;;4.47;;
13421;SDS011;6782;55.904;13.396;2023-04-06T12:22:53;4.40;;;4.00;;
13421;SDS011;6782;55.904;13.396;2023-04-06T12:25:19;4.87;;;4.33;;
13421;SDS011;6782;55.904;13.396;2023-04-06T12:27:47;4.53;;;4.10;;
13421;SDS011;6782;55.904;13.396;2023-04-06T12:30:14;4.23;;;3.83;;
13421;SDS011;6782;55.904;13.396;2023-04-06T12:32:42;4.53;;;4.10;;
13421;SDS011;6782;55.904;13.396;2023-04-06T12:35:10;6.63;;;4.70;;
13421;SDS011;6782;55.904;13.396;2023-04-06T12:37:41;4.77;;;4.23;;
13421;SDS011;6782;55.904;13.396;2023-04-06T12:40:08;5.43;;;4.87;;
13421;SDS011;6782;55.904;13.396;2023-04-06T12:42:38;4.97;;;4.10;;
13421;SDS011;6782;55.904;13.396;2023-04-06T12:45:06;5.30;;;4.47;;
13421;SDS011;6782;55.904;13.396;2023-04-06T12:47:34;5.10;;;4.67;;
13421;SDS011;6782;55.904;13.396;2023-04-06T12:50:01;5.40;;;4.90;;
13421;SDS011;6782;55.904;13.396;2023-04-06T12:52:30;5.87;;;5.20;;
13421;SDS011;6782;55.904;13.396;2023-04-06T12:54:57;6.20;;;5.60;;
13421;SDS011;6782;55.904;13.396;2023-04-06T12:57:25;7.37;;;5.10;;
13421;SDS011;6782;55.904;13.396;2023-04-06T12:59:53;6.33;;;5.10;;
13421;SDS011;6782;55.904;13.396;2023-04-06T13:02:20;7.10;;;4.87;;
13421;SDS011;6782;55.904;13.396;2023-04-06T13:04:48;7.13;;;5.30;;
13421;SDS011;6782;55.904;13.396;2023-04-06T13:07:15;6.20;;;5.60;;
13421;SDS011;6782;55.904;13.396;2023-04-06T13:09:44;6.70;;;5.43;;
13421;SDS011;6782;55.904;13.396;2023-04-06T13:12:13;5.90;;;5.20;;
13421;SDS011;6782;55.904;13.396;2023-04-06T13:14:40;6.57;;;5.77;;
13421;SDS011;6782;55.904;13.396;2023-04-06T13:17:07;6.87;;;6.00;;
13421;SDS011;6782;55.904;13.396;2023-04-06T13:19:34;6.87;;;6.07;;
13421;SDS011;6782;55.904;13.396;2023-04-06T13:22:01;6.63;;;5.93;;
13421;SDS011;6782;55.904;13.396;2023-04-06T13:24:29;7.63;;;5.80;;
13421;SDS011;6782;55.904;13.396;2023-04-06T13:26:58;6.70;;;6.10;;
13421;SDS011;6782;55.904;13.396;2023-04-06T13:29:25;8.57;;;6.73;;
13421;SDS011;6782;55.904;13.396;2023-04-06T13:31:52;6.90;;;6.30;;
13421;SDS011;6782;55.904;13.396;2023-04-06T13:34:19;6.97;;;6.00;;
13421;SDS011;6782;55.904;13.396;2023-04-06T13:36:46;6.00;;;5.50;;
13421;SDS011;6782;55.904;13.396;2023-04-06T13:39:13;7.17;;;6.13;;
13421;SDS011;6782;55.904;13.396;2023-04-06T13:41:40;8.47;;;6.10;;
13421;SDS011;6782;55.904;13.396;2023-04-06T13:44:09;7.53;;;6.10;;
13421;SDS011;6782;55.904;13.396;2023-04-06T13:46:36;9.00;;;6.30;;
13421;SDS011;6782;55.904;13.396;2023-04-06T13:49:03;6.40;;;5.80;;
13421;SDS011;6782;55.904;13.396;2023-04-06T13:51:30;6.77;;;6.17;;
13421;SDS011;6782;55.904;13.396;2023-04-06T13:53:58;6.60;;;6.00;;
13421;SDS011;6782;55.904;13.396;2023-04-06T13:56:25;7.23;;;6.13;;
13421;SDS011;6782;55.904;13.396;2023-04-06T13:58:53;6.93;;;6.00;;
13421;SDS011;6782;55.904;13.396;2023-04-06T14:01:21;6.53;;;5.90;;
13421;SDS011;6782;55.904;13.396;2023-04-06T14:03:48;8.70;;;5.80;;
13421;SDS011;6782;55.904;13.396;2023-04-06T14:06:16;6.47;;;5.40;;
13421;SDS011;6782;55.904;13.396;2023-04-06T14:08:43;8.43;;;6.10;;
13421;SDS011;6782;55.904;13.396;2023-04-06T14:11:11;9.87;;;6.30;;
13421;SDS011;6782;55.904;13.396;2023-04-06T14:13:38;8.27;;;5.67;;
13421;SDS011;6782;55.904;13.396;2023-04-06T14:16:06;8.27;;;5.90;;
13421;SDS011;6782;55.904;13.396;2023-04-06T14:18:36;7.47;;;6.60;;
13421;SDS011;6782;55.904;13.396;2023-04-06T14:21:03;6.67;;;6.07;;
13421;SDS011;6782;55.904;13.396;2023-04-06T14:23:32;7.60;;;6.23;;
13421;SDS011;6782;55.904;13.396;2023-04-06T14:26:02;7.40;;;6.37;;
13421;SDS011;6782;55.904;13.396;2023-04-06T14:28:30;6.77;;;6.07;;
13421;SDS011;6782;55.904;13.396;2023-04-06T14:30:58;8.93;;;6.17;;
13421;SDS011;6782;55.904;13.396;2023-04-06T14:33:26;7.47;;;6.27;;
13421;SDS011;6782;55.904;13.396;2023-04-06T14:35:55;7.27;;;6.07;;
13421;SDS011;6782;55.904;13.396;2023-04-06T14:38:22;7.37;;;6.47;;
13421;SDS011;6782;55.904;13.396;2023-04-06T14:40:49;7.20;;;6.07;;
13421;SDS011;6782;55.904;13.396;2023-04-06T14:43:17;6.30;;;5.70;;
13421;SDS011;6782;55.904;13.396;2023-04-06T14:45:44;7.17;;;6.13;;
13421;SDS011;6782;55.904;13.396;2023-04-06T14:48:10;6.87;;;5.90;;
13421;SDS011;6782;55.904;13.396;2023-04-06T14:50:40;7.83;;;6.27;;